sensor_id;sensor_type;location;lat;lon;timestamp;temperature;humidity
56184;DHT22;42086;53.170;6.980;2022-11-10T00:00:54;10.20;99.90
56184;DHT22;42086;53.170;6.980;2022-11-10T00:03:20;10.20;99.90
56184;DHT22;42086;53.170;6.980;2022-11-10T00:05:46;10.30;99.90
56184;DHT22;42086;53.170;6.980;2022-11-10T00:08:12;10.20;99.90
56184;DHT22;42086;53.170;6.980;2022-11-10T00:10:39;10.20;99.90
56184;DHT22;42086;53.170;6.980;2022-11-10T00:13:28;10.20;99.90
56184;DHT22;42086;53.170;6.980;2022-11-10T00:15:54;10.10;99.90
56184;DHT22;42086;53.170;6.980;2022-11-10T00:18:40;10.00;99.90
56184;DHT22;42086;53.170;6.980;2022-11-10T00:21:07;10.00;99.90
56184;DHT22;42086;53.170;6.980;2022-11-10T00:23:33;10.00;99.90
56184;DHT22;42086;53.170;6.980;2022-11-10T00:25:59;10.00;99.90
56184;DHT22;42086;53.170;6.980;2022-11-10T00:28:25;10.00;99.90
56184;DHT22;42086;53.170;6.980;2022-11-10T00:30:51;10.00;99.90
56184;DHT22;42086;53.170;6.980;2022-11-10T00:33:16;10.00;99.90
56184;DHT22;42086;53.170;6.980;2022-11-10T00:35:42;9.90;99.90
56184;DHT22;42086;53.170;6.980;2022-11-10T00:38:08;9.90;99.90
56184;DHT22;42086;53.170;6.980;2022-11-10T00:40:33;10.00;99.90
56184;DHT22;42086;53.170;6.980;2022-11-10T00:42:59;9.80;99.90
56184;DHT22;42086;53.170;6.980;2022-11-10T00:45:25;9.80;99.90
56184;DHT22;42086;53.170;6.980;2022-11-10T00:47:51;9.80;99.90
56184;DHT22;42086;53.170;6.980;2022-11-10T00:50:16;9.90;99.90
56184;DHT22;42086;53.170;6.980;2022-11-10T00:52:42;9.90;99.90
56184;DHT22;42086;53.170;6.980;2022-11-10T00:55:08;9.90;99.90
56184;DHT22;42086;53.170;6.980;2022-11-10T00:57:33;9.90;99.90
56184;DHT22;42086;53.170;6.980;2022-11-10T00:59:59;9.90;99.90
56184;DHT22;42086;53.170;6.980;2022-11-10T01:02:24;10.00;99.90
56184;DHT22;42086;53.170;6.980;2022-11-10T01:04:50;9.90;99.90
56184;DHT22;42086;53.170;6.980;2022-11-10T01:07:16;9.90;99.90
56184;DHT22;42086;53.170;6.980;2022-11-10T01:09:41;9.90;99.90
56184;DHT22;42086;53.170;6.980;2022-11-10T01:12:07;9.90;99.90
56184;DHT22;42086;53.170;6.980;2022-11-10T01:14:33;10.00;99.90
56184;DHT22;42086;53.170;6.980;2022-11-10T01:16:58;10.00;99.90
56184;DHT22;42086;53.170;6.980;2022-11-10T01:19:24;9.90;99.90
56184;DHT22;42086;53.170;6.980;2022-11-10T01:21:50;10.10;99.90
56184;DHT22;42086;53.170;6.980;2022-11-10T01:24:20;9.90;99.90
56184;DHT22;42086;53.170;6.980;2022-11-10T01:26:46;9.90;99.90
56184;DHT22;42086;53.170;6.980;2022-11-10T01:29:12;10.00;99.90
56184;DHT22;42086;53.170;6.980;2022-11-10T01:31:38;10.00;99.90
56184;DHT22;42086;53.170;6.980;2022-11-10T01:34:04;9.90;99.90
56184;DHT22;42086;53.170;6.980;2022-11-10T01:36:30;9.90;99.90
56184;DHT22;42086;53.170;6.980;2022-11-10T01:38:55;10.00;99.90
56184;DHT22;42086;53.170;6.980;2022-11-10T01:41:21;10.00;99.90
56184;DHT22;42086;53.170;6.980;2022-11-10T01:43:47;10.20;99.90
56184;DHT22;42086;53.170;6.980;2022-11-10T01:46:13;9.90;99.90
56184;DHT22;42086;53.170;6.980;2022-11-10T01:48:56;9.90;99.90
56184;DHT22;42086;53.170;6.980;2022-11-10T01:51:30;9.90;99.90
56184;DHT22;42086;53.170;6.980;2022-11-10T01:54:01;9.80;99.90
56184;DHT22;42086;53.170;6.980;2022-11-10T01:56:29;9.80;99.90
56184;DHT22;42086;53.170;6.980;2022-11-10T01:59:01;9.80;99.90
56184;DHT22;42086;53.170;6.980;2022-11-10T02:01:27;9.70;99.90
56184;DHT22;42086;53.170;6.980;2022-11-10T02:04:06;9.70;99.90
56184;DHT22;42086;53.170;6.980;2022-11-10T02:06:37;9.80;99.90
56184;DHT22;42086;53.170;6.980;2022-11-10T02:09:03;9.80;99.90
56184;DHT22;42086;53.170;6.980;2022-11-10T02:11:29;9.80;99.90
56184;DHT22;42086;53.170;6.980;2022-11-10T02:13:56;9.90;99.90
56184;DHT22;42086;53.170;6.980;2022-11-10T02:16:23;9.80;99.90
56184;DHT22;42086;53.170;6.980;2022-11-10T02:18:49;9.90;99.90
56184;DHT22;42086;53.170;6.980;2022-11-10T02:21:16;9.90;99.90
56184;DHT22;42086;53.170;6.980;2022-11-10T02:23:50;9.90;99.90
56184;DHT22;42086;53.170;6.980;2022-11-10T02:26:21;9.90;99.90
56184;DHT22;42086;53.170;6.980;2022-11-10T02:28:47;9.90;99.90
56184;DHT22;42086;53.170;6.980;2022-11-10T02:31:14;9.90;99.90
56184;DHT22;42086;53.170;6.980;2022-11-10T02:33:41;9.90;99.90
56184;DHT22;42086;53.170;6.980;2022-11-10T02:36:07;9.90;99.90
56184;DHT22;42086;53.170;6.980;2022-11-10T02:38:33;9.80;99.90
56184;DHT22;42086;53.170;6.980;2022-11-10T02:40:58;9.80;99.90
56184;DHT22;42086;53.170;6.980;2022-11-10T02:43:24;9.80;99.90
56184;DHT22;42086;53.170;6.980;2022-11-10T02:45:50;9.90;99.90
56184;DHT22;42086;53.170;6.980;2022-11-10T02:48:15;9.80;99.90
56184;DHT22;42086;53.170;6.980;2022-11-10T02:50:41;9.80;99.90
56184;DHT22;42086;53.170;6.980;2022-11-10T02:53:08;9.90;99.90
56184;DHT22;42086;53.170;6.980;2022-11-10T02:55:34;9.90;99.90
56184;DHT22;42086;53.170;6.980;2022-11-10T02:57:59;9.80;99.90
56184;DHT22;42086;53.170;6.980;2022-11-10T03:00:25;9.80;99.90
56184;DHT22;42086;53.170;6.980;2022-11-10T03:02:59;9.80;99.90
56184;DHT22;42086;53.170;6.980;2022-11-10T03:05:29;9.80;99.90
56184;DHT22;42086;53.170;6.980;2022-11-10T03:08:00;9.70;99.90
56184;DHT22;42086;53.170;6.980;2022-11-10T03:10:27;9.80;99.90
56184;DHT22;42086;53.170;6.980;2022-11-10T03:12:59;9.80;99.90
56184;DHT22;42086;53.170;6.980;2022-11-10T03:15:25;9.90;99.90
56184;DHT22;42086;53.170;6.980;2022-11-10T03:17:51;9.90;99.90
56184;DHT22;42086;53.170;6.980;2022-11-10T03:20:17;9.90;99.90
56184;DHT22;42086;53.170;6.980;2022-11-10T03:22:43;9.90;99.90
56184;DHT22;42086;53.170;6.980;2022-11-10T03:25:10;9.90;99.90
56184;DHT22;42086;53.170;6.980;2022-11-10T03:27:36;9.90;99.90
56184;DHT22;42086;53.170;6.980;2022-11-10T03:30:03;10.00;99.90
56184;DHT22;42086;53.170;6.980;2022-11-10T03:32:29;10.00;99.90
56184;DHT22;42086;53.170;6.980;2022-11-10T03:34:54;10.10;99.90
56184;DHT22;42086;53.170;6.980;2022-11-10T03:37:20;10.00;99.90
56184;DHT22;42086;53.170;6.980;2022-11-10T03:39:46;10.00;99.90
56184;DHT22;42086;53.170;6.980;2022-11-10T03:42:12;10.00;99.90
56184;DHT22;42086;53.170;6.980;2022-11-10T03:44:37;10.00;99.90
56184;DHT22;42086;53.170;6.980;2022-11-10T03:47:03;10.20;99.90
56184;DHT22;42086;53.170;6.980;2022-11-10T03:49:29;9.90;99.90
56184;DHT22;42086;53.170;6.980;2022-11-10T03:51:55;9.90;99.90
56184;DHT22;42086;53.170;6.980;2022-11-10T03:54:21;9.90;99.90
56184;DHT22;42086;53.170;6.980;2022-11-10T03:56:47;9.90;99.90
56184;DHT22;42086;53.170;6.980;2022-11-10T03:59:12;9.90;99.90
56184;DHT22;42086;53.170;6.980;2022-11-10T04:01:38;9.90;99.90
56184;DHT22;42086;53.170;6.980;2022-11-10T04:04:04;9.90;99.90
56184;DHT22;42086;53.170;6.980;2022-11-10T04:06:29;9.90;99.90
56184;DHT22;42086;53.170;6.980;2022-11-10T04:09:14;9.90;99.90
56184;DHT22;42086;53.170;6.980;2022-11-10T04:11:39;9.90;99.90
56184;DHT22;42086;53.170;6.980;2022-11-10T04:14:23;9.90;99.90
56184;DHT22;42086;53.170;6.980;2022-11-10T04:17:07;9.80;99.90
56184;DHT22;42086;53.170;6.980;2022-11-10T04:19:34;9.80;99.90
56184;DHT22;42086;53.170;6.980;2022-11-10T04:22:00;9.80;99.90
56184;DHT22;42086;53.170;6.980;2022-11-10T04:24:25;9.80;99.90
56184;DHT22;42086;53.170;6.980;2022-11-10T04:26:51;9.80;99.90
56184;DHT22;42086;53.170;6.980;2022-11-10T04:29:18;9.90;99.90
56184;DHT22;42086;53.170;6.980;2022-11-10T04:31:44;9.80;99.90
56184;DHT22;42086;53.170;6.980;2022-11-10T04:34:12;9.80;99.90
56184;DHT22;42086;53.170;6.980;2022-11-10T04:36:41;9.90;99.90
56184;DHT22;42086;53.170;6.980;2022-11-10T04:39:07;9.80;99.90
56184;DHT22;42086;53.170;6.980;2022-11-10T04:41:34;9.90;99.90
56184;DHT22;42086;53.170;6.980;2022-11-10T04:44:00;9.90;99.90
56184;DHT22;42086;53.170;6.980;2022-11-10T04:46:32;9.90;99.90
56184;DHT22;42086;53.170;6.980;2022-11-10T04:48:59;9.90;99.90
56184;DHT22;42086;53.170;6.980;2022-11-10T04:51:51;9.90;99.90
56184;DHT22;42086;53.170;6.980;2022-11-10T04:54:16;10.00;99.90
56184;DHT22;42086;53.170;6.980;2022-11-10T04:56:42;9.90;99.90
56184;DHT22;42086;53.170;6.980;2022-11-10T04:59:08;9.90;99.90
56184;DHT22;42086;53.170;6.980;2022-11-10T05:01:33;9.90;99.90
56184;DHT22;42086;53.170;6.980;2022-11-10T05:03:59;10.00;99.90
56184;DHT22;42086;53.170;6.980;2022-11-10T05:06:25;9.90;99.90
56184;DHT22;42086;53.170;6.980;2022-11-10T05:08:51;10.00;99.90
56184;DHT22;42086;53.170;6.980;2022-11-10T05:11:17;10.00;99.90
56184;DHT22;42086;53.170;6.980;2022-11-10T05:13:44;10.00;99.90
56184;DHT22;42086;53.170;6.980;2022-11-10T05:16:10;10.10;99.90
56184;DHT22;42086;53.170;6.980;2022-11-10T05:18:36;10.00;99.90
56184;DHT22;42086;53.170;6.980;2022-11-10T05:21:02;10.00;99.90
56184;DHT22;42086;53.170;6.980;2022-11-10T05:23:28;10.00;99.90
56184;DHT22;42086;53.170;6.980;2022-11-10T05:26:23;9.90;99.90
56184;DHT22;42086;53.170;6.980;2022-11-10T05:28:49;10.00;99.90
56184;DHT22;42086;53.170;6.980;2022-11-10T05:31:15;9.90;99.90
56184;DHT22;42086;53.170;6.980;2022-11-10T05:33:40;10.00;99.90
56184;DHT22;42086;53.170;6.980;2022-11-10T05:36:07;10.10;99.90
56184;DHT22;42086;53.170;6.980;2022-11-10T05:38:33;10.10;99.90
56184;DHT22;42086;53.170;6.980;2022-11-10T05:40:59;10.10;99.90
56184;DHT22;42086;53.170;6.980;2022-11-10T05:43:25;10.20;99.90
56184;DHT22;42086;53.170;6.980;2022-11-10T05:45:50;10.30;99.90
56184;DHT22;42086;53.170;6.980;2022-11-10T05:48:16;10.40;99.90
56184;DHT22;42086;53.170;6.980;2022-11-10T05:50:42;10.30;99.90
56184;DHT22;42086;53.170;6.980;2022-11-10T05:53:08;10.30;99.90
56184;DHT22;42086;53.170;6.980;2022-11-10T05:55:34;10.30;99.90
56184;DHT22;42086;53.170;6.980;2022-11-10T05:58:00;10.30;99.90
56184;DHT22;42086;53.170;6.980;2022-11-10T06:00:27;10.30;99.90
56184;DHT22;42086;53.170;6.980;2022-11-10T06:03:05;10.40;99.90
56184;DHT22;42086;53.170;6.980;2022-11-10T06:05:34;10.40;99.90
56184;DHT22;42086;53.170;6.980;2022-11-10T06:08:01;10.40;99.90
56184;DHT22;42086;53.170;6.980;2022-11-10T06:10:27;10.40;99.90
56184;DHT22;42086;53.170;6.980;2022-11-10T06:12:53;10.40;99.90
56184;DHT22;42086;53.170;6.980;2022-11-10T06:15:19;10.40;99.90
56184;DHT22;42086;53.170;6.980;2022-11-10T06:17:45;10.40;99.90
56184;DHT22;42086;53.170;6.980;2022-11-10T06:20:12;10.40;99.90
56184;DHT22;42086;53.170;6.980;2022-11-10T06:22:39;10.40;99.90
56184;DHT22;42086;53.170;6.980;2022-11-10T06:25:05;10.40;99.90
56184;DHT22;42086;53.170;6.980;2022-11-10T06:27:31;10.40;99.90
56184;DHT22;42086;53.170;6.980;2022-11-10T06:29:56;10.40;99.90
56184;DHT22;42086;53.170;6.980;2022-11-10T06:32:22;10.30;99.90
56184;DHT22;42086;53.170;6.980;2022-11-10T06:34:48;10.30;99.90
56184;DHT22;42086;53.170;6.980;2022-11-10T06:37:14;10.20;99.90
56184;DHT22;42086;53.170;6.980;2022-11-10T06:39:39;10.10;99.90
56184;DHT22;42086;53.170;6.980;2022-11-10T06:42:05;10.40;99.90
56184;DHT22;42086;53.170;6.980;2022-11-10T06:44:31;10.10;99.90
56184;DHT22;42086;53.170;6.980;2022-11-10T06:46:56;10.10;99.90
56184;DHT22;42086;53.170;6.980;2022-11-10T06:49:22;10.10;99.90
56184;DHT22;42086;53.170;6.980;2022-11-10T06:51:48;10.00;99.90
56184;DHT22;42086;53.170;6.980;2022-11-10T06:54:13;10.10;99.90
56184;DHT22;42086;53.170;6.980;2022-11-10T06:56:39;10.10;99.90
56184;DHT22;42086;53.170;6.980;2022-11-10T06:59:05;10.10;99.90
56184;DHT22;42086;53.170;6.980;2022-11-10T07:01:30;10.20;99.90
56184;DHT22;42086;53.170;6.980;2022-11-10T07:03:56;10.20;99.90
56184;DHT22;42086;53.170;6.980;2022-11-10T07:06:22;10.30;99.90
56184;DHT22;42086;53.170;6.980;2022-11-10T07:08:49;10.40;99.90
56184;DHT22;42086;53.170;6.980;2022-11-10T07:11:14;10.40;99.90
56184;DHT22;42086;53.170;6.980;2022-11-10T07:13:41;10.40;99.90
56184;DHT22;42086;53.170;6.980;2022-11-10T07:16:08;10.50;99.90
56184;DHT22;42086;53.170;6.980;2022-11-10T07:18:35;10.50;99.90
56184;DHT22;42086;53.170;6.980;2022-11-10T07:21:05;10.60;99.90
56184;DHT22;42086;53.170;6.980;2022-11-10T07:23:31;10.70;99.90
56184;DHT22;42086;53.170;6.980;2022-11-10T07:26:01;10.70;99.90
56184;DHT22;42086;53.170;6.980;2022-11-10T07:28:27;10.70;99.90
56184;DHT22;42086;53.170;6.980;2022-11-10T07:34:15;10.80;99.90
56184;DHT22;42086;53.170;6.980;2022-11-10T07:36:40;10.80;99.90
56184;DHT22;42086;53.170;6.980;2022-11-10T07:39:06;10.80;99.90
56184;DHT22;42086;53.170;6.980;2022-11-10T07:41:32;10.80;99.90
56184;DHT22;42086;53.170;6.980;2022-11-10T07:43:57;10.80;99.90
56184;DHT22;42086;53.170;6.980;2022-11-10T07:46:23;10.80;99.90
56184;DHT22;42086;53.170;6.980;2022-11-10T07:48:49;10.80;99.90
56184;DHT22;42086;53.170;6.980;2022-11-10T07:51:15;10.80;99.90
56184;DHT22;42086;53.170;6.980;2022-11-10T07:53:40;10.80;99.90
56184;DHT22;42086;53.170;6.980;2022-11-10T07:56:06;10.80;99.90
56184;DHT22;42086;53.170;6.980;2022-11-10T07:58:32;10.80;99.90
56184;DHT22;42086;53.170;6.980;2022-11-10T08:00:58;10.80;99.90
56184;DHT22;42086;53.170;6.980;2022-11-10T08:03:24;10.80;99.90
56184;DHT22;42086;53.170;6.980;2022-11-10T08:05:50;10.80;99.90
56184;DHT22;42086;53.170;6.980;2022-11-10T08:08:17;10.80;99.90
56184;DHT22;42086;53.170;6.980;2022-11-10T08:10:43;10.70;99.90
56184;DHT22;42086;53.170;6.980;2022-11-10T08:13:11;10.70;99.90
56184;DHT22;42086;53.170;6.980;2022-11-10T08:15:37;10.70;99.90
56184;DHT22;42086;53.170;6.980;2022-11-10T08:18:07;10.70;99.90
56184;DHT22;42086;53.170;6.980;2022-11-10T08:20:37;10.70;99.90
56184;DHT22;42086;53.170;6.980;2022-11-10T08:23:04;10.80;99.90
56184;DHT22;42086;53.170;6.980;2022-11-10T08:25:32;10.80;99.90
56184;DHT22;42086;53.170;6.980;2022-11-10T08:28:07;10.90;99.90
56184;DHT22;42086;53.170;6.980;2022-11-10T08:30:34;10.90;99.90
56184;DHT22;42086;53.170;6.980;2022-11-10T08:33:02;10.90;99.90
56184;DHT22;42086;53.170;6.980;2022-11-10T08:35:31;10.90;99.90
56184;DHT22;42086;53.170;6.980;2022-11-10T08:38:04;10.90;99.90
56184;DHT22;42086;53.170;6.980;2022-11-10T08:40:32;10.90;99.90
56184;DHT22;42086;53.170;6.980;2022-11-10T08:42:59;11.00;99.90
56184;DHT22;42086;53.170;6.980;2022-11-10T08:45:25;11.10;99.90
56184;DHT22;42086;53.170;6.980;2022-11-10T08:47:58;11.30;99.90
56184;DHT22;42086;53.170;6.980;2022-11-10T08:50:25;11.40;99.90
56184;DHT22;42086;53.170;6.980;2022-11-10T08:52:51;11.60;99.90
56184;DHT22;42086;53.170;6.980;2022-11-10T08:55:17;11.70;99.90
56184;DHT22;42086;53.170;6.980;2022-11-10T08:57:45;11.90;99.90
56184;DHT22;42086;53.170;6.980;2022-11-10T09:00:12;12.00;99.90
56184;DHT22;42086;53.170;6.980;2022-11-10T09:02:38;12.00;99.90
56184;DHT22;42086;53.170;6.980;2022-11-10T09:05:04;12.10;99.90
56184;DHT22;42086;53.170;6.980;2022-11-10T09:07:30;12.20;99.90
56184;DHT22;42086;53.170;6.980;2022-11-10T09:09:56;12.20;99.90
56184;DHT22;42086;53.170;6.980;2022-11-10T09:12:21;12.30;99.90
56184;DHT22;42086;53.170;6.980;2022-11-10T09:14:47;12.30;99.90
56184;DHT22;42086;53.170;6.980;2022-11-10T09:17:13;12.30;99.90
56184;DHT22;42086;53.170;6.980;2022-11-10T09:19:38;12.40;99.90
56184;DHT22;42086;53.170;6.980;2022-11-10T09:22:04;12.40;99.90
56184;DHT22;42086;53.170;6.980;2022-11-10T09:24:30;12.40;99.90
56184;DHT22;42086;53.170;6.980;2022-11-10T09:26:56;12.50;99.90
56184;DHT22;42086;53.170;6.980;2022-11-10T09:29:21;12.50;99.90
56184;DHT22;42086;53.170;6.980;2022-11-10T09:31:48;12.70;99.90
56184;DHT22;42086;53.170;6.980;2022-11-10T09:34:14;12.90;99.90
56184;DHT22;42086;53.170;6.980;2022-11-10T09:36:40;12.90;99.90
56184;DHT22;42086;53.170;6.980;2022-11-10T09:39:06;12.90;99.90
56184;DHT22;42086;53.170;6.980;2022-11-10T09:41:32;13.10;99.90
56184;DHT22;42086;53.170;6.980;2022-11-10T09:44:04;13.10;99.90
56184;DHT22;42086;53.170;6.980;2022-11-10T09:46:40;13.10;99.90
56184;DHT22;42086;53.170;6.980;2022-11-10T09:51:51;13.30;99.90
56184;DHT22;42086;53.170;6.980;2022-11-10T09:54:35;13.30;99.90
56184;DHT22;42086;53.170;6.980;2022-11-10T09:57:05;13.20;99.90
56184;DHT22;42086;53.170;6.980;2022-11-10T09:59:32;13.30;99.90
56184;DHT22;42086;53.170;6.980;2022-11-10T10:04:52;13.40;99.90
56184;DHT22;42086;53.170;6.980;2022-11-10T10:07:30;13.40;99.90
56184;DHT22;42086;53.170;6.980;2022-11-10T10:10:10;13.20;99.90
56184;DHT22;42086;53.170;6.980;2022-11-10T10:23:22;13.80;99.90
56184;DHT22;42086;53.170;6.980;2022-11-10T10:25:51;13.70;99.90
56184;DHT22;42086;53.170;6.980;2022-11-10T10:30:43;13.80;99.90
56184;DHT22;42086;53.170;6.980;2022-11-10T10:33:17;13.80;99.90
56184;DHT22;42086;53.170;6.980;2022-11-10T10:35:44;13.70;99.90
56184;DHT22;42086;53.170;6.980;2022-11-10T10:38:22;13.70;99.90
56184;DHT22;42086;53.170;6.980;2022-11-10T10:40:51;13.70;99.90
56184;DHT22;42086;53.170;6.980;2022-11-10T10:43:18;13.70;99.90
56184;DHT22;42086;53.170;6.980;2022-11-10T10:45:44;13.80;99.90
56184;DHT22;42086;53.170;6.980;2022-11-10T10:48:28;13.80;99.90
56184;DHT22;42086;53.170;6.980;2022-11-10T10:50:54;13.90;99.90
56184;DHT22;42086;53.170;6.980;2022-11-10T10:53:22;13.90;99.90
56184;DHT22;42086;53.170;6.980;2022-11-10T10:55:57;14.00;99.90
56184;DHT22;42086;53.170;6.980;2022-11-10T10:58:32;14.20;99.90
56184;DHT22;42086;53.170;6.980;2022-11-10T11:01:05;14.30;99.90
56184;DHT22;42086;53.170;6.980;2022-11-10T11:03:49;14.20;99.90
56184;DHT22;42086;53.170;6.980;2022-11-10T11:11:31;14.40;99.90
56184;DHT22;42086;53.170;6.980;2022-11-10T11:14:26;14.50;99.90
56184;DHT22;42086;53.170;6.980;2022-11-10T11:16:54;14.40;99.90
56184;DHT22;42086;53.170;6.980;2022-11-10T11:19:24;14.50;99.90
56184;DHT22;42086;53.170;6.980;2022-11-10T11:22:28;14.50;99.90
56184;DHT22;42086;53.170;6.980;2022-11-10T11:28:06;14.70;99.90
56184;DHT22;42086;53.170;6.980;2022-11-10T11:31:05;14.70;99.90
56184;DHT22;42086;53.170;6.980;2022-11-10T11:39:28;14.70;99.90
56184;DHT22;42086;53.170;6.980;2022-11-10T11:50:36;14.70;99.90
56184;DHT22;42086;53.170;6.980;2022-11-10T11:53:34;14.70;99.90
56184;DHT22;42086;53.170;6.980;2022-11-10T11:58:42;14.90;99.90
56184;DHT22;42086;53.170;6.980;2022-11-10T12:14:36;14.90;99.90
56184;DHT22;42086;53.170;6.980;2022-11-10T12:17:23;15.00;99.90
56184;DHT22;42086;53.170;6.980;2022-11-10T12:20:11;15.00;99.90
56184;DHT22;42086;53.170;6.980;2022-11-10T12:28:37;14.90;99.90
56184;DHT22;42086;53.170;6.980;2022-11-10T12:31:10;14.80;99.90
56184;DHT22;42086;53.170;6.980;2022-11-10T12:33:49;14.80;99.90
56184;DHT22;42086;53.170;6.980;2022-11-10T12:36:18;14.90;99.90
56184;DHT22;42086;53.170;6.980;2022-11-10T12:38:54;14.80;99.90
56184;DHT22;42086;53.170;6.980;2022-11-10T12:41:22;14.90;99.90
56184;DHT22;42086;53.170;6.980;2022-11-10T12:44:07;14.80;99.90
56184;DHT22;42086;53.170;6.980;2022-11-10T12:46:38;14.80;99.90
56184;DHT22;42086;53.170;6.980;2022-11-10T12:49:17;14.70;99.90
56184;DHT22;42086;53.170;6.980;2022-11-10T12:51:52;14.70;99.90
56184;DHT22;42086;53.170;6.980;2022-11-10T12:54:22;14.60;99.90
56184;DHT22;42086;53.170;6.980;2022-11-10T12:56:55;14.70;99.90
56184;DHT22;42086;53.170;6.980;2022-11-10T12:59:29;14.70;99.90
56184;DHT22;42086;53.170;6.980;2022-11-10T13:02:37;14.70;99.90
56184;DHT22;42086;53.170;6.980;2022-11-10T13:07:48;14.60;99.90
56184;DHT22;42086;53.170;6.980;2022-11-10T13:18:04;14.50;99.90
56184;DHT22;42086;53.170;6.980;2022-11-10T13:20:50;14.50;99.90
56184;DHT22;42086;53.170;6.980;2022-11-10T13:23:29;14.50;99.90
56184;DHT22;42086;53.170;6.980;2022-11-10T13:25:56;14.50;99.90
56184;DHT22;42086;53.170;6.980;2022-11-10T13:34:11;14.60;99.90
56184;DHT22;42086;53.170;6.980;2022-11-10T13:36:50;14.60;99.90
56184;DHT22;42086;53.170;6.980;2022-11-10T13:41:46;14.60;99.90
56184;DHT22;42086;53.170;6.980;2022-11-10T13:44:31;14.60;99.90
56184;DHT22;42086;53.170;6.980;2022-11-10T13:57:39;15.50;99.90
56184;DHT22;42086;53.170;6.980;2022-11-10T14:02:54;15.40;99.90
56184;DHT22;42086;53.170;6.980;2022-11-10T14:08:17;15.50;99.90
56184;DHT22;42086;53.170;6.980;2022-11-10T14:10:48;15.30;99.90
56184;DHT22;42086;53.170;6.980;2022-11-10T14:13:22;15.00;99.90
56184;DHT22;42086;53.170;6.980;2022-11-10T14:15:49;14.90;99.90
56184;DHT22;42086;53.170;6.980;2022-11-10T14:18:23;14.70;99.90
56184;DHT22;42086;53.170;6.980;2022-11-10T14:21:00;14.60;99.90
56184;DHT22;42086;53.170;6.980;2022-11-10T14:23:43;14.60;99.90
56184;DHT22;42086;53.170;6.980;2022-11-10T14:26:26;14.60;99.90
56184;DHT22;42086;53.170;6.980;2022-11-10T14:28:53;14.80;99.90
56184;DHT22;42086;53.170;6.980;2022-11-10T14:31:21;14.90;99.90
56184;DHT22;42086;53.170;6.980;2022-11-10T14:33:57;14.90;99.90
56184;DHT22;42086;53.170;6.980;2022-11-10T14:36:24;14.80;99.90
56184;DHT22;42086;53.170;6.980;2022-11-10T14:38:51;14.60;99.90
56184;DHT22;42086;53.170;6.980;2022-11-10T14:41:19;14.50;99.90
56184;DHT22;42086;53.170;6.980;2022-11-10T14:44:02;14.40;99.90
56184;DHT22;42086;53.170;6.980;2022-11-10T14:46:28;14.30;99.90
56184;DHT22;42086;53.170;6.980;2022-11-10T14:48:55;14.30;99.90
56184;DHT22;42086;53.170;6.980;2022-11-10T14:51:23;14.30;99.90
56184;DHT22;42086;53.170;6.980;2022-11-10T14:53:54;14.20;99.90
56184;DHT22;42086;53.170;6.980;2022-11-10T14:56:27;14.30;99.90
56184;DHT22;42086;53.170;6.980;2022-11-10T14:58:55;14.20;99.90
56184;DHT22;42086;53.170;6.980;2022-11-10T15:03:53;14.30;99.90
56184;DHT22;42086;53.170;6.980;2022-11-10T15:06:20;14.30;99.90
56184;DHT22;42086;53.170;6.980;2022-11-10T15:08:46;14.30;99.90
56184;DHT22;42086;53.170;6.980;2022-11-10T15:11:38;14.30;99.90
56184;DHT22;42086;53.170;6.980;2022-11-10T15:14:18;14.30;99.90
56184;DHT22;42086;53.170;6.980;2022-11-10T15:17:09;14.30;99.90
56184;DHT22;42086;53.170;6.980;2022-11-10T15:19:51;14.30;99.90
56184;DHT22;42086;53.170;6.980;2022-11-10T15:22:27;14.30;99.90
56184;DHT22;42086;53.170;6.980;2022-11-10T15:25:07;14.30;99.90
56184;DHT22;42086;53.170;6.980;2022-11-10T15:27:33;13.30;99.90
56184;DHT22;42086;53.170;6.980;2022-11-10T15:30:01;14.30;99.90
56184;DHT22;42086;53.170;6.980;2022-11-10T15:32:43;14.30;99.90
56184;DHT22;42086;53.170;6.980;2022-11-10T15:35:24;14.30;99.90
56184;DHT22;42086;53.170;6.980;2022-11-10T15:38:05;14.20;99.90
56184;DHT22;42086;53.170;6.980;2022-11-10T15:40:45;14.20;99.90
56184;DHT22;42086;53.170;6.980;2022-11-10T15:43:24;14.20;99.90
56184;DHT22;42086;53.170;6.980;2022-11-10T15:46:02;14.10;99.90
56184;DHT22;42086;53.170;6.980;2022-11-10T15:48:43;14.10;99.90
56184;DHT22;42086;53.170;6.980;2022-11-10T15:51:11;14.00;99.90
56184;DHT22;42086;53.170;6.980;2022-11-10T15:53:42;14.10;99.90
56184;DHT22;42086;53.170;6.980;2022-11-10T15:56:12;14.10;99.90
56184;DHT22;42086;53.170;6.980;2022-11-10T15:58:39;14.00;99.90
56184;DHT22;42086;53.170;6.980;2022-11-10T16:01:09;14.10;99.90
56184;DHT22;42086;53.170;6.980;2022-11-10T16:03:35;14.10;99.90
56184;DHT22;42086;53.170;6.980;2022-11-10T16:06:01;14.00;99.90
56184;DHT22;42086;53.170;6.980;2022-11-10T16:08:26;14.10;99.90
56184;DHT22;42086;53.170;6.980;2022-11-10T16:10:55;14.00;99.90
56184;DHT22;42086;53.170;6.980;2022-11-10T16:13:24;14.10;99.90
56184;DHT22;42086;53.170;6.980;2022-11-10T16:15:50;14.00;99.90
56184;DHT22;42086;53.170;6.980;2022-11-10T16:18:19;13.90;99.90
56184;DHT22;42086;53.170;6.980;2022-11-10T16:20:47;13.90;99.90
56184;DHT22;42086;53.170;6.980;2022-11-10T16:23:13;13.90;99.90
56184;DHT22;42086;53.170;6.980;2022-11-10T16:25:39;13.90;99.90
56184;DHT22;42086;53.170;6.980;2022-11-10T16:28:05;13.90;99.90
56184;DHT22;42086;53.170;6.980;2022-11-10T16:30:32;13.90;99.90
56184;DHT22;42086;53.170;6.980;2022-11-10T16:32:58;13.80;99.90
56184;DHT22;42086;53.170;6.980;2022-11-10T16:35:24;13.90;99.90
56184;DHT22;42086;53.170;6.980;2022-11-10T16:37:51;13.90;99.90
56184;DHT22;42086;53.170;6.980;2022-11-10T16:40:19;13.90;99.90
56184;DHT22;42086;53.170;6.980;2022-11-10T16:42:45;13.90;99.90
56184;DHT22;42086;53.170;6.980;2022-11-10T16:45:15;13.80;99.90
56184;DHT22;42086;53.170;6.980;2022-11-10T16:47:42;13.90;99.90
56184;DHT22;42086;53.170;6.980;2022-11-10T16:50:28;13.90;99.90
56184;DHT22;42086;53.170;6.980;2022-11-10T16:52:54;13.80;99.90
56184;DHT22;42086;53.170;6.980;2022-11-10T16:55:20;13.80;99.90
56184;DHT22;42086;53.170;6.980;2022-11-10T16:57:47;13.80;99.90
56184;DHT22;42086;53.170;6.980;2022-11-10T17:00:14;13.80;99.90
56184;DHT22;42086;53.170;6.980;2022-11-10T17:02:40;13.80;99.90
56184;DHT22;42086;53.170;6.980;2022-11-10T17:05:13;13.70;99.90
56184;DHT22;42086;53.170;6.980;2022-11-10T17:07:40;13.80;99.90
56184;DHT22;42086;53.170;6.980;2022-11-10T17:10:15;13.70;99.90
56184;DHT22;42086;53.170;6.980;2022-11-10T17:12:41;13.70;99.90
56184;DHT22;42086;53.170;6.980;2022-11-10T17:15:10;13.70;99.90
56184;DHT22;42086;53.170;6.980;2022-11-10T17:17:36;13.60;99.90
56184;DHT22;42086;53.170;6.980;2022-11-10T17:20:03;13.70;99.90
56184;DHT22;42086;53.170;6.980;2022-11-10T17:22:31;13.70;99.90
56184;DHT22;42086;53.170;6.980;2022-11-10T17:24:58;13.70;99.90
56184;DHT22;42086;53.170;6.980;2022-11-10T17:27:23;13.70;99.90
56184;DHT22;42086;53.170;6.980;2022-11-10T17:29:51;13.70;99.90
56184;DHT22;42086;53.170;6.980;2022-11-10T17:32:17;13.60;99.90